sensor_id;sensor_type;location;lat;lon;timestamp;temperature;humidity
66128;DHT22;52925;52.436;-1.952;2024-01-07T05:23:20;7.20;99.90
66128;DHT22;52925;52.436;-1.952;2024-01-07T05:24:41;7.20;99.90
66128;DHT22;52925;52.436;-1.952;2024-01-07T05:26:00;7.20;99.90
66128;DHT22;52925;52.436;-1.952;2024-01-07T05:27:21;7.20;99.90
66128;DHT22;52925;52.436;-1.952;2024-01-07T05:28:41;7.20;99.90
66128;DHT22;52925;52.436;-1.952;2024-01-07T05:30:03;7.20;99.90
66128;DHT22;52925;52.436;-1.952;2024-01-07T05:31:23;7.20;99.90
66128;DHT22;52925;52.436;-1.952;2024-01-07T05:32:44;7.20;99.90
66128;DHT22;52925;52.436;-1.952;2024-01-07T05:34:04;7.20;99.90
66128;DHT22;52925;52.436;-1.952;2024-01-07T05:35:25;7.10;99.90
66128;DHT22;52925;52.436;-1.952;2024-01-07T05:36:45;7.20;99.90
66128;DHT22;52925;52.436;-1.952;2024-01-07T05:38:06;7.20;99.90
66128;DHT22;52925;52.436;-1.952;2024-01-07T05:39:28;7.20;99.90
66128;DHT22;52925;52.436;-1.952;2024-01-07T05:40:49;7.10;99.90
66128;DHT22;52925;52.436;-1.952;2024-01-07T05:42:09;7.10;99.90
66128;DHT22;52925;52.436;-1.952;2024-01-07T05:43:29;7.20;99.90
66128;DHT22;52925;52.436;-1.952;2024-01-07T05:44:50;7.10;99.90
66128;DHT22;52925;52.436;-1.952;2024-01-07T05:46:11;7.10;99.90
66128;DHT22;52925;52.436;-1.952;2024-01-07T05:47:31;7.10;99.90
66128;DHT22;52925;52.436;-1.952;2024-01-07T05:48:52;7.00;99.90
66128;DHT22;52925;52.436;-1.952;2024-01-07T05:50:12;7.10;99.90
66128;DHT22;52925;52.436;-1.952;2024-01-07T05:51:38;7.10;99.90
66128;DHT22;52925;52.436;-1.952;2024-01-07T05:52:58;7.10;99.90
66128;DHT22;52925;52.436;-1.952;2024-01-07T05:54:20;7.10;99.90
66128;DHT22;52925;52.436;-1.952;2024-01-07T05:55:41;7.10;99.90
66128;DHT22;52925;52.436;-1.952;2024-01-07T05:57:02;7.10;99.90
66128;DHT22;52925;52.436;-1.952;2024-01-07T05:58:22;7.20;99.90
66128;DHT22;52925;52.436;-1.952;2024-01-07T05:59:44;7.20;99.90
66128;DHT22;52925;52.436;-1.952;2024-01-07T06:01:04;7.20;99.90
66128;DHT22;52925;52.436;-1.952;2024-01-07T06:02:26;7.10;99.90
66128;DHT22;52925;52.436;-1.952;2024-01-07T06:03:47;7.10;99.90
66128;DHT22;52925;52.436;-1.952;2024-01-07T06:05:07;7.10;99.90
66128;DHT22;52925;52.436;-1.952;2024-01-07T06:06:28;7.10;99.90
66128;DHT22;52925;52.436;-1.952;2024-01-07T06:07:48;7.10;99.90
66128;DHT22;52925;52.436;-1.952;2024-01-07T06:09:09;7.10;99.90
66128;DHT22;52925;52.436;-1.952;2024-01-07T06:10:28;7.20;99.90
66128;DHT22;52925;52.436;-1.952;2024-01-07T06:11:51;7.10;99.90
66128;DHT22;52925;52.436;-1.952;2024-01-07T06:13:11;7.10;99.90
66128;DHT22;52925;52.436;-1.952;2024-01-07T06:14:31;7.10;99.90
66128;DHT22;52925;52.436;-1.952;2024-01-07T06:15:52;7.10;99.90
66128;DHT22;52925;52.436;-1.952;2024-01-07T06:17:13;7.10;99.90
66128;DHT22;52925;52.436;-1.952;2024-01-07T06:18:33;7.10;99.90
66128;DHT22;52925;52.436;-1.952;2024-01-07T06:19:54;7.10;99.90
66128;DHT22;52925;52.436;-1.952;2024-01-07T06:21:14;7.10;99.90
66128;DHT22;52925;52.436;-1.952;2024-01-07T06:22:35;7.10;99.90
66128;DHT22;52925;52.436;-1.952;2024-01-07T06:23:55;7.10;99.90
66128;DHT22;52925;52.436;-1.952;2024-01-07T06:25:16;7.10;99.90
66128;DHT22;52925;52.436;-1.952;2024-01-07T06:26:36;7.10;99.90
66128;DHT22;52925;52.436;-1.952;2024-01-07T06:27:58;7.20;99.90
66128;DHT22;52925;52.436;-1.952;2024-01-07T06:29:18;7.10;99.90
66128;DHT22;52925;52.436;-1.952;2024-01-07T06:30:39;7.10;99.90
66128;DHT22;52925;52.436;-1.952;2024-01-07T06:31:59;7.10;99.90
66128;DHT22;52925;52.436;-1.952;2024-01-07T06:33:20;7.20;99.90
66128;DHT22;52925;52.436;-1.952;2024-01-07T06:34:40;7.10;99.90
66128;DHT22;52925;52.436;-1.952;2024-01-07T06:36:01;7.20;99.90
66128;DHT22;52925;52.436;-1.952;2024-01-07T06:37:21;7.10;99.90
66128;DHT22;52925;52.436;-1.952;2024-01-07T06:38:42;7.10;99.90
66128;DHT22;52925;52.436;-1.952;2024-01-07T06:40:03;7.10;99.90
66128;DHT22;52925;52.436;-1.952;2024-01-07T06:41:24;7.10;99.90
66128;DHT22;52925;52.436;-1.952;2024-01-07T06:42:45;7.20;99.90
66128;DHT22;52925;52.436;-1.952;2024-01-07T06:44:09;7.20;99.90
66128;DHT22;52925;52.436;-1.952;2024-01-07T06:45:29;7.10;99.90
66128;DHT22;52925;52.436;-1.952;2024-01-07T06:46:49;7.10;99.90
66128;DHT22;52925;52.436;-1.952;2024-01-07T06:48:09;7.20;99.90
66128;DHT22;52925;52.436;-1.952;2024-01-07T06:49:30;7.10;99.90
66128;DHT22;52925;52.436;-1.952;2024-01-07T06:50:50;7.20;99.90
66128;DHT22;52925;52.436;-1.952;2024-01-07T06:52:11;7.20;99.90
66128;DHT22;52925;52.436;-1.952;2024-01-07T06:53:31;7.10;99.90
66128;DHT22;52925;52.436;-1.952;2024-01-07T06:54:52;7.10;99.90
66128;DHT22;52925;52.436;-1.952;2024-01-07T06:56:13;7.10;99.90
66128;DHT22;52925;52.436;-1.952;2024-01-07T06:57:34;7.10;99.90
66128;DHT22;52925;52.436;-1.952;2024-01-07T06:58:54;7.10;99.90
66128;DHT22;52925;52.436;-1.952;2024-01-07T07:00:17;7.10;99.90
66128;DHT22;52925;52.436;-1.952;2024-01-07T07:01:37;7.10;99.90
66128;DHT22;52925;52.436;-1.952;2024-01-07T07:02:58;7.10;99.90
66128;DHT22;52925;52.436;-1.952;2024-01-07T07:04:18;7.10;99.90
66128;DHT22;52925;52.436;-1.952;2024-01-07T07:05:39;7.10;99.90
66128;DHT22;52925;52.436;-1.952;2024-01-07T07:06:59;7.10;99.90
66128;DHT22;52925;52.436;-1.952;2024-01-07T07:08:20;7.10;99.90
66128;DHT22;52925;52.436;-1.952;2024-01-07T07:09:40;7.10;99.90
66128;DHT22;52925;52.436;-1.952;2024-01-07T07:11:01;7.10;99.90
66128;DHT22;52925;52.436;-1.952;2024-01-07T07:12:21;7.10;99.90
66128;DHT22;52925;52.436;-1.952;2024-01-07T07:13:42;7.10;99.90
66128;DHT22;52925;52.436;-1.952;2024-01-07T07:15:02;7.10;99.90
66128;DHT22;52925;52.436;-1.952;2024-01-07T07:16:25;7.10;99.90
66128;DHT22;52925;52.436;-1.952;2024-01-07T16:39:23;7.10;99.90
66128;DHT22;52925;52.436;-1.952;2024-01-07T16:40:45;7.10;99.90
66128;DHT22;52925;52.436;-1.952;2024-01-07T16:42:05;7.00;99.90
66128;DHT22;52925;52.436;-1.952;2024-01-07T16:43:26;7.00;99.90
66128;DHT22;52925;52.436;-1.952;2024-01-07T16:44:50;7.00;99.90
66128;DHT22;52925;52.436;-1.952;2024-01-07T16:46:12;7.10;99.90
66128;DHT22;52925;52.436;-1.952;2024-01-07T16:47:33;7.10;99.90
66128;DHT22;52925;52.436;-1.952;2024-01-07T16:48:53;7.10;99.90
66128;DHT22;52925;52.436;-1.952;2024-01-07T16:50:13;7.00;99.90
66128;DHT22;52925;52.436;-1.952;2024-01-07T16:51:34;7.10;99.90
66128;DHT22;52925;52.436;-1.952;2024-01-07T16:52:54;7.00;99.90
66128;DHT22;52925;52.436;-1.952;2024-01-07T16:54:15;7.10;99.90
66128;DHT22;52925;52.436;-1.952;2024-01-07T16:55:36;7.10;99.90
66128;DHT22;52925;52.436;-1.952;2024-01-07T16:56:57;7.10;99.90
66128;DHT22;52925;52.436;-1.952;2024-01-07T16:58:17;7.10;99.90
66128;DHT22;52925;52.436;-1.952;2024-01-07T16:59:40;7.10;99.90
66128;DHT22;52925;52.436;-1.952;2024-01-07T17:01:01;7.10;99.90
66128;DHT22;52925;52.436;-1.952;2024-01-07T17:02:22;7.10;99.90
66128;DHT22;52925;52.436;-1.952;2024-01-07T17:03:42;7.00;99.90
66128;DHT22;52925;52.436;-1.952;2024-01-07T17:05:03;7.00;99.90
66128;DHT22;52925;52.436;-1.952;2024-01-07T17:06:24;7.00;99.90
66128;DHT22;52925;52.436;-1.952;2024-01-07T17:07:45;7.00;99.90
66128;DHT22;52925;52.436;-1.952;2024-01-07T17:09:07;7.00;99.90
66128;DHT22;52925;52.436;-1.952;2024-01-07T17:10:28;7.00;99.90
66128;DHT22;52925;52.436;-1.952;2024-01-07T17:11:49;7.00;99.90
66128;DHT22;52925;52.436;-1.952;2024-01-07T17:13:10;7.00;99.90
66128;DHT22;52925;52.436;-1.952;2024-01-07T17:14:30;7.00;99.90
66128;DHT22;52925;52.436;-1.952;2024-01-07T17:15:51;7.00;99.90
66128;DHT22;52925;52.436;-1.952;2024-01-07T17:17:11;7.00;99.90
66128;DHT22;52925;52.436;-1.952;2024-01-07T17:18:32;7.00;99.90
66128;DHT22;52925;52.436;-1.952;2024-01-07T17:19:52;7.00;99.90
66128;DHT22;52925;52.436;-1.952;2024-01-07T17:21:13;7.00;99.90
66128;DHT22;52925;52.436;-1.952;2024-01-07T17:22:33;7.00;99.90
66128;DHT22;52925;52.436;-1.952;2024-01-07T17:23:54;7.00;99.90
66128;DHT22;52925;52.436;-1.952;2024-01-07T17:25:14;7.00;99.90
66128;DHT22;52925;52.436;-1.952;2024-01-07T17:26:34;7.00;99.90
66128;DHT22;52925;52.436;-1.952;2024-01-07T17:27:56;7.00;99.90
66128;DHT22;52925;52.436;-1.952;2024-01-07T17:29:17;6.90;99.90
66128;DHT22;52925;52.436;-1.952;2024-01-07T17:30:37;6.90;99.90
66128;DHT22;52925;52.436;-1.952;2024-01-07T17:31:58;7.00;99.90
66128;DHT22;52925;52.436;-1.952;2024-01-07T17:33:18;7.00;99.90
66128;DHT22;52925;52.436;-1.952;2024-01-07T17:34:39;6.90;99.90
66128;DHT22;52925;52.436;-1.952;2024-01-07T17:35:59;7.00;99.90
66128;DHT22;52925;52.436;-1.952;2024-01-07T17:37:20;6.90;99.90
66128;DHT22;52925;52.436;-1.952;2024-01-07T17:38:40;6.90;99.90
66128;DHT22;52925;52.436;-1.952;2024-01-07T17:40:01;7.00;99.90
66128;DHT22;52925;52.436;-1.952;2024-01-07T17:41:21;6.90;99.90
66128;DHT22;52925;52.436;-1.952;2024-01-07T17:42:42;7.00;99.90
66128;DHT22;52925;52.436;-1.952;2024-01-07T17:44:03;6.90;99.90
66128;DHT22;52925;52.436;-1.952;2024-01-07T17:45:23;7.00;99.90
66128;DHT22;52925;52.436;-1.952;2024-01-07T17:46:43;6.90;99.90
66128;DHT22;52925;52.436;-1.952;2024-01-07T17:48:05;6.90;99.90
66128;DHT22;52925;52.436;-1.952;2024-01-07T17:49:25;6.90;99.90
66128;DHT22;52925;52.436;-1.952;2024-01-07T17:50:46;6.90;99.90
66128;DHT22;52925;52.436;-1.952;2024-01-07T17:52:05;6.90;99.90
66128;DHT22;52925;52.436;-1.952;2024-01-07T17:53:26;6.90;99.90
66128;DHT22;52925;52.436;-1.952;2024-01-07T17:54:47;6.90;99.90
66128;DHT22;52925;52.436;-1.952;2024-01-07T17:56:07;6.90;99.90
66128;DHT22;52925;52.436;-1.952;2024-01-07T17:57:28;6.90;99.90
66128;DHT22;52925;52.436;-1.952;2024-01-07T17:58:51;6.90;99.90
66128;DHT22;52925;52.436;-1.952;2024-01-07T18:00:14;6.80;99.90
66128;DHT22;52925;52.436;-1.952;2024-01-07T18:01:36;6.90;99.90
66128;DHT22;52925;52.436;-1.952;2024-01-07T18:02:56;6.90;99.90
66128;DHT22;52925;52.436;-1.952;2024-01-07T18:04:17;6.80;99.90
66128;DHT22;52925;52.436;-1.952;2024-01-07T18:05:37;6.80;99.90
66128;DHT22;52925;52.436;-1.952;2024-01-07T18:06:58;6.90;99.90
66128;DHT22;52925;52.436;-1.952;2024-01-07T18:08:18;6.90;99.90
66128;DHT22;52925;52.436;-1.952;2024-01-07T18:09:40;6.90;99.90
66128;DHT22;52925;52.436;-1.952;2024-01-07T18:11:00;6.90;99.90
66128;DHT22;52925;52.436;-1.952;2024-01-07T18:12:22;6.90;99.90
66128;DHT22;52925;52.436;-1.952;2024-01-07T18:13:43;6.90;99.90
66128;DHT22;52925;52.436;-1.952;2024-01-07T18:15:04;6.80;99.90
66128;DHT22;52925;52.436;-1.952;2024-01-07T18:16:26;6.80;99.90
66128;DHT22;52925;52.436;-1.952;2024-01-07T18:17:46;6.80;99.90
66128;DHT22;52925;52.436;-1.952;2024-01-07T18:19:06;6.80;99.90
66128;DHT22;52925;52.436;-1.952;2024-01-07T18:20:27;6.80;99.90
66128;DHT22;52925;52.436;-1.952;2024-01-07T18:21:48;6.80;99.90
66128;DHT22;52925;52.436;-1.952;2024-01-07T18:23:08;6.90;99.90
66128;DHT22;52925;52.436;-1.952;2024-01-07T18:24:30;6.90;99.90
66128;DHT22;52925;52.436;-1.952;2024-01-07T18:25:51;6.80;99.90
66128;DHT22;52925;52.436;-1.952;2024-01-07T18:27:11;6.80;99.90
66128;DHT22;52925;52.436;-1.952;2024-01-07T18:28:31;6.80;99.90
66128;DHT22;52925;52.436;-1.952;2024-01-07T18:29:51;6.80;99.90
66128;DHT22;52925;52.436;-1.952;2024-01-07T18:31:14;6.80;99.90
66128;DHT22;52925;52.436;-1.952;2024-01-07T18:32:36;6.80;99.90
66128;DHT22;52925;52.436;-1.952;2024-01-07T18:33:58;6.80;99.90
66128;DHT22;52925;52.436;-1.952;2024-01-07T18:35:17;6.80;99.90
66128;DHT22;52925;52.436;-1.952;2024-01-07T18:36:39;6.80;99.90
66128;DHT22;52925;52.436;-1.952;2024-01-07T18:38:00;6.80;99.90
66128;DHT22;52925;52.436;-1.952;2024-01-07T18:39:21;6.80;99.90
66128;DHT22;52925;52.436;-1.952;2024-01-07T18:40:41;6.80;99.90
66128;DHT22;52925;52.436;-1.952;2024-01-07T18:42:02;6.80;99.90
66128;DHT22;52925;52.436;-1.952;2024-01-07T18:43:22;6.80;99.90
66128;DHT22;52925;52.436;-1.952;2024-01-07T18:44:43;6.80;99.90
66128;DHT22;52925;52.436;-1.952;2024-01-07T18:46:03;6.80;99.90
66128;DHT22;52925;52.436;-1.952;2024-01-07T18:47:29;6.80;99.90
66128;DHT22;52925;52.436;-1.952;2024-01-07T18:48:51;6.80;99.90
66128;DHT22;52925;52.436;-1.952;2024-01-07T18:50:11;6.80;99.90
66128;DHT22;52925;52.436;-1.952;2024-01-07T18:51:32;6.80;99.90
66128;DHT22;52925;52.436;-1.952;2024-01-07T18:52:53;6.80;99.90
66128;DHT22;52925;52.436;-1.952;2024-01-07T18:54:13;6.80;99.90
66128;DHT22;52925;52.436;-1.952;2024-01-07T18:55:34;6.80;99.90
66128;DHT22;52925;52.436;-1.952;2024-01-07T18:56:57;6.80;99.90
66128;DHT22;52925;52.436;-1.952;2024-01-07T18:58:20;6.80;99.90
66128;DHT22;52925;52.436;-1.952;2024-01-07T18:59:40;6.80;99.90
66128;DHT22;52925;52.436;-1.952;2024-01-07T19:01:00;6.80;99.90
66128;DHT22;52925;52.436;-1.952;2024-01-07T19:02:20;6.80;99.90
66128;DHT22;52925;52.436;-1.952;2024-01-07T19:03:41;6.80;99.90
66128;DHT22;52925;52.436;-1.952;2024-01-07T19:05:03;6.80;99.90
66128;DHT22;52925;52.436;-1.952;2024-01-07T19:06:24;6.80;99.90
66128;DHT22;52925;52.436;-1.952;2024-01-07T19:07:44;6.80;99.90
66128;DHT22;52925;52.436;-1.952;2024-01-07T19:09:05;6.80;99.90
66128;DHT22;52925;52.436;-1.952;2024-01-07T19:10:24;6.80;99.90
66128;DHT22;52925;52.436;-1.952;2024-01-07T19:11:45;6.80;99.90
66128;DHT22;52925;52.436;-1.952;2024-01-07T19:13:04;6.80;99.90
66128;DHT22;52925;52.436;-1.952;2024-01-07T19:14:25;6.90;99.90
66128;DHT22;52925;52.436;-1.952;2024-01-07T19:15:45;6.80;99.90
66128;DHT22;52925;52.436;-1.952;2024-01-07T19:17:06;6.80;99.90
66128;DHT22;52925;52.436;-1.952;2024-01-07T19:18:26;6.80;99.90
66128;DHT22;52925;52.436;-1.952;2024-01-07T19:19:49;6.80;99.90
66128;DHT22;52925;52.436;-1.952;2024-01-07T19:21:15;6.80;99.90
66128;DHT22;52925;52.436;-1.952;2024-01-07T19:22:36;6.80;99.90
66128;DHT22;52925;52.436;-1.952;2024-01-07T19:23:56;6.80;99.90
66128;DHT22;52925;52.436;-1.952;2024-01-07T19:25:17;6.80;99.90
66128;DHT22;52925;52.436;-1.952;2024-01-07T19:26:38;6.80;99.90
66128;DHT22;52925;52.436;-1.952;2024-01-07T19:28:01;6.80;99.90
66128;DHT22;52925;52.436;-1.952;2024-01-07T19:29:21;6.80;99.90
66128;DHT22;52925;52.436;-1.952;2024-01-07T19:30:41;6.80;99.90
66128;DHT22;52925;52.436;-1.952;2024-01-07T19:32:04;6.80;99.90
66128;DHT22;52925;52.436;-1.952;2024-01-07T19:33:25;6.80;99.90
66128;DHT22;52925;52.436;-1.952;2024-01-07T19:34:45;6.80;99.90
66128;DHT22;52925;52.436;-1.952;2024-01-07T19:36:06;6.70;99.90
66128;DHT22;52925;52.436;-1.952;2024-01-07T19:37:29;6.80;99.90
66128;DHT22;52925;52.436;-1.952;2024-01-07T19:38:50;6.80;99.90
66128;DHT22;52925;52.436;-1.952;2024-01-07T19:40:12;6.80;99.90
66128;DHT22;52925;52.436;-1.952;2024-01-07T19:41:33;6.70;99.90
66128;DHT22;52925;52.436;-1.952;2024-01-07T19:42:55;6.70;99.90
66128;DHT22;52925;52.436;-1.952;2024-01-07T19:44:16;6.80;99.90
66128;DHT22;52925;52.436;-1.952;2024-01-07T19:45:37;6.80;99.90
66128;DHT22;52925;52.436;-1.952;2024-01-07T19:46:59;6.80;99.90
66128;DHT22;52925;52.436;-1.952;2024-01-07T19:48:19;6.80;99.90
66128;DHT22;52925;52.436;-1.952;2024-01-07T19:49:40;6.80;99.90
66128;DHT22;52925;52.436;-1.952;2024-01-07T19:51:00;6.70;99.90
66128;DHT22;52925;52.436;-1.952;2024-01-07T19:52:21;6.80;99.90
66128;DHT22;52925;52.436;-1.952;2024-01-07T19:53:42;6.70;99.90
66128;DHT22;52925;52.436;-1.952;2024-01-07T19:55:03;6.70;99.90
66128;DHT22;52925;52.436;-1.952;2024-01-07T19:56:23;6.70;99.90
66128;DHT22;52925;52.436;-1.952;2024-01-07T19:57:44;6.70;99.90
66128;DHT22;52925;52.436;-1.952;2024-01-07T19:59:04;6.70;99.90
66128;DHT22;52925;52.436;-1.952;2024-01-07T20:00:25;6.70;99.90
66128;DHT22;52925;52.436;-1.952;2024-01-07T20:01:45;6.70;99.90
66128;DHT22;52925;52.436;-1.952;2024-01-07T20:03:06;6.70;99.90
66128;DHT22;52925;52.436;-1.952;2024-01-07T20:04:26;6.70;99.90
66128;DHT22;52925;52.436;-1.952;2024-01-07T20:05:48;6.70;99.90
66128;DHT22;52925;52.436;-1.952;2024-01-07T20:07:08;6.70;99.90
66128;DHT22;52925;52.436;-1.952;2024-01-07T20:08:29;6.70;99.90
66128;DHT22;52925;52.436;-1.952;2024-01-07T20:09:51;6.70;99.90
66128;DHT22;52925;52.436;-1.952;2024-01-07T20:11:16;6.70;99.90
66128;DHT22;52925;52.436;-1.952;2024-01-07T20:12:37;6.70;99.90
66128;DHT22;52925;52.436;-1.952;2024-01-07T20:13:58;6.70;99.90
66128;DHT22;52925;52.436;-1.952;2024-01-07T20:15:18;6.70;99.90
66128;DHT22;52925;52.436;-1.952;2024-01-07T20:16:39;6.70;99.90
66128;DHT22;52925;52.436;-1.952;2024-01-07T20:17:59;6.70;99.90
66128;DHT22;52925;52.436;-1.952;2024-01-07T20:19:19;6.70;99.90
66128;DHT22;52925;52.436;-1.952;2024-01-07T20:20:40;6.70;99.90
66128;DHT22;52925;52.436;-1.952;2024-01-07T20:22:00;6.70;99.90
66128;DHT22;52925;52.436;-1.952;2024-01-07T20:23:21;6.70;99.90
66128;DHT22;52925;52.436;-1.952;2024-01-07T20:24:41;6.70;99.90
66128;DHT22;52925;52.436;-1.952;2024-01-07T20:26:03;6.70;99.90
66128;DHT22;52925;52.436;-1.952;2024-01-07T20:27:23;6.70;99.90
66128;DHT22;52925;52.436;-1.952;2024-01-07T20:28:44;6.70;99.90
66128;DHT22;52925;52.436;-1.952;2024-01-07T20:30:06;6.70;99.90
66128;DHT22;52925;52.436;-1.952;2024-01-07T20:31:33;6.60;99.90
66128;DHT22;52925;52.436;-1.952;2024-01-07T20:32:53;6.70;99.90
66128;DHT22;52925;52.436;-1.952;2024-01-07T20:34:13;6.70;99.90
66128;DHT22;52925;52.436;-1.952;2024-01-07T20:35:36;6.60;99.90
66128;DHT22;52925;52.436;-1.952;2024-01-07T20:36:57;6.70;99.90
66128;DHT22;52925;52.436;-1.952;2024-01-07T20:38:16;6.70;99.90
66128;DHT22;52925;52.436;-1.952;2024-01-07T20:39:39;6.70;99.90
66128;DHT22;52925;52.436;-1.952;2024-01-07T20:40:59;6.70;99.90
66128;DHT22;52925;52.436;-1.952;2024-01-07T20:42:22;6.70;99.90
66128;DHT22;52925;52.436;-1.952;2024-01-07T20:43:42;6.60;99.90
66128;DHT22;52925;52.436;-1.952;2024-01-07T20:45:04;6.60;99.90
66128;DHT22;52925;52.436;-1.952;2024-01-07T20:46:24;6.70;99.90
66128;DHT22;52925;52.436;-1.952;2024-01-07T20:47:45;6.60;99.90
66128;DHT22;52925;52.436;-1.952;2024-01-07T20:49:05;6.60;99.90
66128;DHT22;52925;52.436;-1.952;2024-01-07T20:50:26;6.60;99.90
66128;DHT22;52925;52.436;-1.952;2024-01-07T20:51:46;6.70;99.90
66128;DHT22;52925;52.436;-1.952;2024-01-07T20:53:07;6.60;99.90
66128;DHT22;52925;52.436;-1.952;2024-01-07T20:54:27;6.70;99.90
66128;DHT22;52925;52.436;-1.952;2024-01-07T20:55:50;6.70;99.90
66128;DHT22;52925;52.436;-1.952;2024-01-07T20:57:11;6.70;99.90
66128;DHT22;52925;52.436;-1.952;2024-01-07T20:58:33;6.70;99.90
66128;DHT22;52925;52.436;-1.952;2024-01-07T20:59:54;6.70;99.90
66128;DHT22;52925;52.436;-1.952;2024-01-07T21:01:15;6.60;99.90
66128;DHT22;52925;52.436;-1.952;2024-01-07T21:02:35;6.60;99.90
66128;DHT22;52925;52.436;-1.952;2024-01-07T21:03:56;6.60;99.90
66128;DHT22;52925;52.436;-1.952;2024-01-07T21:05:16;6.60;99.90
66128;DHT22;52925;52.436;-1.952;2024-01-07T21:06:38;6.60;99.90
66128;DHT22;52925;52.436;-1.952;2024-01-07T21:07:58;6.60;99.90
66128;DHT22;52925;52.436;-1.952;2024-01-07T21:09:19;6.60;99.90
66128;DHT22;52925;52.436;-1.952;2024-01-07T21:10:40;6.70;99.90
66128;DHT22;52925;52.436;-1.952;2024-01-07T21:12:01;6.70;99.90
66128;DHT22;52925;52.436;-1.952;2024-01-07T21:13:21;6.70;99.90
66128;DHT22;52925;52.436;-1.952;2024-01-07T21:14:44;6.70;99.90
66128;DHT22;52925;52.436;-1.952;2024-01-07T21:16:04;6.70;99.90
66128;DHT22;52925;52.436;-1.952;2024-01-07T21:17:25;6.60;99.90
66128;DHT22;52925;52.436;-1.952;2024-01-07T21:18:45;6.60;99.90
66128;DHT22;52925;52.436;-1.952;2024-01-07T21:20:08;6.60;99.90
66128;DHT22;52925;52.436;-1.952;2024-01-07T21:21:28;6.60;99.90
66128;DHT22;52925;52.436;-1.952;2024-01-07T21:22:49;6.60;99.90
66128;DHT22;52925;52.436;-1.952;2024-01-07T21:24:09;6.60;99.90
66128;DHT22;52925;52.436;-1.952;2024-01-07T21:25:30;6.60;99.90
66128;DHT22;52925;52.436;-1.952;2024-01-07T21:26:49;6.60;99.90
66128;DHT22;52925;52.436;-1.952;2024-01-07T21:28:12;6.60;99.90
66128;DHT22;52925;52.436;-1.952;2024-01-07T21:29:32;6.60;99.90
66128;DHT22;52925;52.436;-1.952;2024-01-07T21:30:55;6.60;99.90
66128;DHT22;52925;52.436;-1.952;2024-01-07T21:32:18;6.60;99.90
66128;DHT22;52925;52.436;-1.952;2024-01-07T21:33:39;6.60;99.90
66128;DHT22;52925;52.436;-1.952;2024-01-07T21:34:59;6.60;99.90
66128;DHT22;52925;52.436;-1.952;2024-01-07T21:36:20;6.60;99.90
66128;DHT22;52925;52.436;-1.952;2024-01-07T21:37:40;6.60;99.90
66128;DHT22;52925;52.436;-1.952;2024-01-07T21:39:01;6.60;99.90
66128;DHT22;52925;52.436;-1.952;2024-01-07T21:40:22;6.60;99.90
66128;DHT22;52925;52.436;-1.952;2024-01-07T21:41:43;6.60;99.90
66128;DHT22;52925;52.436;-1.952;2024-01-07T21:43:04;6.60;99.90
66128;DHT22;52925;52.436;-1.952;2024-01-07T21:44:25;6.60;99.90
66128;DHT22;52925;52.436;-1.952;2024-01-07T21:45:45;6.60;99.90
66128;DHT22;52925;52.436;-1.952;2024-01-07T21:47:08;6.60;99.90
66128;DHT22;52925;52.436;-1.952;2024-01-07T21:48:28;6.60;99.90
66128;DHT22;52925;52.436;-1.952;2024-01-07T21:49:55;6.60;99.90
66128;DHT22;52925;52.436;-1.952;2024-01-07T21:51:15;6.60;99.90
66128;DHT22;52925;52.436;-1.952;2024-01-07T21:52:36;6.60;99.90
66128;DHT22;52925;52.436;-1.952;2024-01-07T21:53:56;6.60;99.90
66128;DHT22;52925;52.436;-1.952;2024-01-07T21:55:17;6.60;99.90
66128;DHT22;52925;52.436;-1.952;2024-01-07T21:56:37;6.60;99.90
66128;DHT22;52925;52.436;-1.952;2024-01-07T21:57:58;6.60;99.90
66128;DHT22;52925;52.436;-1.952;2024-01-07T21:59:17;6.60;99.90
66128;DHT22;52925;52.436;-1.952;2024-01-07T22:00:38;6.60;99.90
66128;DHT22;52925;52.436;-1.952;2024-01-07T22:01:58;6.60;99.90
66128;DHT22;52925;52.436;-1.952;2024-01-07T22:03:21;6.60;99.90
66128;DHT22;52925;52.436;-1.952;2024-01-07T22:04:41;6.60;99.90
66128;DHT22;52925;52.436;-1.952;2024-01-07T22:06:02;6.60;99.90
66128;DHT22;52925;52.436;-1.952;2024-01-07T22:07:21;6.60;99.90
66128;DHT22;52925;52.436;-1.952;2024-01-07T22:08:42;6.60;99.90
66128;DHT22;52925;52.436;-1.952;2024-01-07T22:10:02;6.60;99.90
66128;DHT22;52925;52.436;-1.952;2024-01-07T22:11:24;6.60;99.90
66128;DHT22;52925;52.436;-1.952;2024-01-07T22:12:43;6.60;99.90
66128;DHT22;52925;52.436;-1.952;2024-01-07T22:14:05;6.60;99.90
66128;DHT22;52925;52.436;-1.952;2024-01-07T22:15:24;6.60;99.90
66128;DHT22;52925;52.436;-1.952;2024-01-07T22:16:45;6.60;99.90
66128;DHT22;52925;52.436;-1.952;2024-01-07T22:18:06;6.60;99.90
66128;DHT22;52925;52.436;-1.952;2024-01-07T22:19:29;6.60;99.90
66128;DHT22;52925;52.436;-1.952;2024-01-07T22:20:49;6.60;99.90
66128;DHT22;52925;52.436;-1.952;2024-01-07T22:22:10;6.60;99.90
66128;DHT22;52925;52.436;-1.952;2024-01-07T22:23:31;6.50;99.90
66128;DHT22;52925;52.436;-1.952;2024-01-07T22:24:51;6.50;99.90
66128;DHT22;52925;52.436;-1.952;2024-01-07T22:26:11;6.60;99.90
66128;DHT22;52925;52.436;-1.952;2024-01-07T22:27:33;6.60;99.90
66128;DHT22;52925;52.436;-1.952;2024-01-07T22:28:54;6.60;99.90
66128;DHT22;52925;52.436;-1.952;2024-01-07T22:30:14;6.60;99.90
66128;DHT22;52925;52.436;-1.952;2024-01-07T22:31:34;6.50;99.90
66128;DHT22;52925;52.436;-1.952;2024-01-07T22:32:55;6.50;99.90
66128;DHT22;52925;52.436;-1.952;2024-01-07T22:34:15;6.50;99.90
66128;DHT22;52925;52.436;-1.952;2024-01-07T22:35:38;6.50;99.90
66128;DHT22;52925;52.436;-1.952;2024-01-07T22:36:58;6.50;99.90
66128;DHT22;52925;52.436;-1.952;2024-01-07T22:38:18;6.60;99.90
66128;DHT22;52925;52.436;-1.952;2024-01-07T22:39:38;6.60;99.90
66128;DHT22;52925;52.436;-1.952;2024-01-07T22:40:59;6.60;99.90
66128;DHT22;52925;52.436;-1.952;2024-01-07T22:42:19;6.50;99.90
66128;DHT22;52925;52.436;-1.952;2024-01-07T22:43:40;6.50;99.90
66128;DHT22;52925;52.436;-1.952;2024-01-07T22:44:59;6.50;99.90
66128;DHT22;52925;52.436;-1.952;2024-01-07T22:46:21;6.60;99.90
66128;DHT22;52925;52.436;-1.952;2024-01-07T22:47:41;6.60;99.90
66128;DHT22;52925;52.436;-1.952;2024-01-07T22:49:02;6.60;99.90
66128;DHT22;52925;52.436;-1.952;2024-01-07T22:50:22;6.60;99.90
66128;DHT22;52925;52.436;-1.952;2024-01-07T22:51:45;6.50;99.90
66128;DHT22;52925;52.436;-1.952;2024-01-07T22:53:06;6.60;99.90
66128;DHT22;52925;52.436;-1.952;2024-01-07T22:54:26;6.50;99.90
66128;DHT22;52925;52.436;-1.952;2024-01-07T22:55:50;6.60;99.90
66128;DHT22;52925;52.436;-1.952;2024-01-07T22:57:11;6.60;99.90
66128;DHT22;52925;52.436;-1.952;2024-01-07T22:58:31;6.60;99.90
66128;DHT22;52925;52.436;-1.952;2024-01-07T22:59:52;6.50;99.90
66128;DHT22;52925;52.436;-1.952;2024-01-07T23:01:13;6.50;99.90
66128;DHT22;52925;52.436;-1.952;2024-01-07T23:02:33;6.50;99.90
66128;DHT22;52925;52.436;-1.952;2024-01-07T23:03:53;6.50;99.90
66128;DHT22;52925;52.436;-1.952;2024-01-07T23:05:16;6.60;99.90
66128;DHT22;52925;52.436;-1.952;2024-01-07T23:06:36;6.50;99.90
66128;DHT22;52925;52.436;-1.952;2024-01-07T23:07:59;6.50;99.90
66128;DHT22;52925;52.436;-1.952;2024-01-07T23:09:18;6.50;99.90
66128;DHT22;52925;52.436;-1.952;2024-01-07T23:10:39;6.50;99.90
66128;DHT22;52925;52.436;-1.952;2024-01-07T23:12:01;6.50;99.90
66128;DHT22;52925;52.436;-1.952;2024-01-07T23:13:22;6.50;99.90
66128;DHT22;52925;52.436;-1.952;2024-01-07T23:14:42;6.60;99.90
